Time;durP1;ratioP1;P1;durP2;ratioP2;P2;SDS_P1;SDS_P2;PMS_P1;PMS_P2;Temp;Humidity;BMP_temperature;BMP_pressure;BME280_temperature;BME280_humidity;BME280_pressure;Samples;Min_cycle;Max_cycle;Signal;HPM_P1;HPM_P2
2020/12/10 00:01:37;;;;;;;41.50;22.80;;;1.50;99.90;;;;;;5059627;28;20445;-78
2020/12/10 00:04:04;;;;;;;33.33;19.87;;;1.50;99.90;;;;;;5064898;28;20489;-78
2020/12/10 00:06:30;;;;;;;35.67;21.13;;;1.50;99.90;;;;;;5058423;28;21234;-79
2020/12/10 00:08:57;;;;;;;34.00;20.90;;;1.50;99.90;;;;;;5062998;28;20513;-80
2020/12/10 00:11:24;;;;;;;31.20;19.83;;;1.60;99.90;;;;;;5065776;28;20466;-79
2020/12/10 00:13:50;;;;;;;34.20;21.43;;;1.50;99.90;;;;;;5064613;28;20946;-79
2020/12/10 00:16:17;;;;;;;34.77;20.97;;;1.50;99.90;;;;;;5068514;28;20457;-79
2020/12/10 00:18:43;;;;;;;34.17;21.10;;;1.50;99.90;;;;;;5067058;28;20454;-79
2020/12/10 00:21:09;;;;;;;33.27;19.53;;;1.50;99.90;;;;;;5062988;28;20491;-79
2020/12/10 00:23:36;;;;;;;36.27;21.27;;;1.50;99.90;;;;;;5071041;28;20736;-82
2020/12/10 00:26:03;;;;;;;33.70;20.87;;;1.60;99.90;;;;;;5065994;28;20482;-79
2020/12/10 00:28:30;;;;;;;31.47;19.07;;;1.60;99.90;;;;;;5064838;28;20923;-79
2020/12/10 00:30:56;;;;;;;32.63;19.23;;;1.60;99.90;;;;;;5066159;28;20539;-78
2020/12/10 00:33:22;;;;;;;34.90;20.57;;;1.60;99.90;;;;;;5066916;28;20505;-79
2020/12/10 00:35:49;;;;;;;35.33;20.73;;;1.60;99.90;;;;;;5057696;28;20482;-81
2020/12/10 00:38:15;;;;;;;37.73;20.23;;;1.60;99.90;;;;;;5070533;28;20567;-79
2020/12/10 00:40:42;;;;;;;31.00;19.37;;;1.60;99.90;;;;;;5070762;28;20446;-79
2020/12/10 00:43:09;;;;;;;36.00;20.17;;;1.70;99.90;;;;;;5078702;28;20834;-80
2020/12/10 00:45:35;;;;;;;33.50;19.40;;;1.60;99.90;;;;;;5071356;28;20549;-78
2020/12/10 00:48:04;;;;;;;35.53;21.33;;;1.70;99.90;;;;;;5079029;28;20442;-80
2020/12/10 00:50:30;;;;;;;30.63;19.37;;;1.70;99.90;;;;;;5067093;28;20486;-80
2020/12/10 00:52:57;;;;;;;34.27;20.23;;;1.70;99.90;;;;;;5075697;28;20506;-79
2020/12/10 00:55:23;;;;;;;33.17;20.20;;;1.70;99.90;;;;;;5064679;28;20451;-78
2020/12/10 00:57:50;;;;;;;35.60;20.80;;;1.70;99.90;;;;;;5069143;28;20482;-78
2020/12/10 01:00:17;;;;;;;33.10;19.27;;;1.70;99.90;;;;;;5066722;28;20465;-79
2020/12/10 01:02:44;;;;;;;33.30;20.40;;;1.70;99.90;;;;;;5073054;28;20485;-78
2020/12/10 01:05:11;;;;;;;35.60;21.17;;;1.70;99.90;;;;;;5066856;28;20457;-78
2020/12/10 01:07:38;;;;;;;32.40;19.90;;;1.70;99.90;;;;;;5064847;28;20460;-78
2020/12/10 01:10:05;;;;;;;37.60;20.93;;;1.70;99.90;;;;;;5066584;28;20584;-78
2020/12/10 01:12:32;;;;;;;37.03;22.17;;;1.70;99.90;;;;;;5061443;28;20451;-78
2020/12/10 01:14:59;;;;;;;39.70;22.83;;;1.70;99.40;;;;;;5056051;28;20481;-78
2020/12/10 01:17:27;;;;;;;37.33;21.73;;;1.70;99.70;;;;;;5063213;28;20458;-78
2020/12/10 01:19:54;;;;;;;37.03;20.83;;;1.60;98.40;;;;;;5067075;28;20468;-78
2020/12/10 01:22:20;;;;;;;38.23;22.43;;;1.70;99.40;;;;;;5058635;28;20451;-78
2020/12/10 01:24:46;;;;;;;39.33;22.10;;;1.70;99.90;;;;;;5073079;28;20836;-81
2020/12/10 01:27:13;;;;;;;46.20;23.37;;;1.70;99.50;;;;;;5070608;28;20875;-78
2020/12/10 01:29:40;;;;;;;44.13;22.47;;;1.60;99.70;;;;;;5079579;28;20451;-80
2020/12/10 01:32:06;;;;;;;37.23;21.47;;;1.60;98.60;;;;;;5080413;28;20485;-78
2020/12/10 01:34:34;;;;;;;43.47;22.07;;;1.60;99.90;;;;;;5077516;28;20932;-79
2020/12/10 01:37:01;;;;;;;42.73;23.13;;;1.50;99.90;;;;;;5068803;28;20524;-78
2020/12/10 01:39:27;;;;;;;38.97;20.80;;;1.60;99.90;;;;;;5065507;28;20468;-78
2020/12/10 01:41:54;;;;;;;43.93;22.00;;;1.60;99.90;;;;;;5075464;28;20465;-81
2020/12/10 01:44:20;;;;;;;49.33;23.83;;;1.60;99.90;;;;;;5071527;28;20462;-79
2020/12/10 01:46:47;;;;;;;51.90;23.60;;;1.60;99.90;;;;;;5071025;28;20501;-79
2020/12/10 01:49:13;;;;;;;52.00;25.50;;;1.60;99.90;;;;;;5069175;28;20814;-80
2020/12/10 01:51:40;;;;;;;48.20;24.27;;;1.60;99.90;;;;;;5064642;28;20452;-79
2020/12/10 01:54:07;;;;;;;42.10;22.83;;;1.60;99.50;;;;;;5070246;28;20547;-79
2020/12/10 01:56:34;;;;;;;47.00;24.70;;;1.60;99.90;;;;;;5066407;28;20515;-79
2020/12/10 01:59:01;;;;;;;49.33;24.70;;;1.50;99.90;;;;;;5063418;28;20483;-78
2020/12/10 02:01:28;;;;;;;47.20;23.83;;;1.50;99.90;;;;;;5069331;28;20441;-79
2020/12/10 02:03:55;;;;;;;50.47;24.37;;;1.50;99.90;;;;;;5062266;28;20469;-78
2020/12/10 02:06:21;;;;;;;44.97;24.00;;;1.50;99.90;;;;;;5068536;28;20475;-78
2020/12/10 02:08:49;;;;;;;51.90;24.40;;;1.40;99.90;;;;;;5054651;28;20462;-79
2020/12/10 02:11:15;;;;;;;52.20;24.67;;;1.40;99.90;;;;;;5064160;28;20473;-79
2020/12/10 02:13:42;;;;;;;49.77;23.50;;;1.40;99.90;;;;;;5058762;28;20466;-78
2020/12/10 02:16:09;;;;;;;52.00;25.40;;;1.40;99.90;;;;;;5064242;28;20441;-78
2020/12/10 02:18:36;;;;;;;46.57;22.87;;;1.40;99.90;;;;;;5061116;28;20462;-80
2020/12/10 02:21:03;;;;;;;46.57;26.33;;;1.40;99.90;;;;;;5065114;28;20955;-79
2020/12/10 02:23:31;;;;;;;46.70;25.70;;;1.40;99.90;;;;;;5059925;28;20826;-77
2020/12/10 02:25:57;;;;;;;52.10;25.53;;;1.40;99.90;;;;;;5068148;28;20536;-79
2020/12/10 02:28:24;;;;;;;48.20;26.00;;;1.30;99.90;;;;;;5068454;28;20486;-78
2020/12/10 02:30:50;;;;;;;56.10;26.00;;;1.30;99.90;;;;;;5057019;28;20503;-79
2020/12/10 02:33:18;;;;;;;57.93;26.27;;;1.30;99.90;;;;;;5066526;28;20448;-79
2020/12/10 02:35:45;;;;;;;53.43;26.87;;;1.40;99.90;;;;;;5075005;28;20469;-79
2020/12/10 02:38:12;;;;;;;49.53;25.17;;;1.40;99.90;;;;;;5080353;28;20479;-79
2020/12/10 02:40:41;;;;;;;54.67;26.47;;;1.40;99.90;;;;;;5073669;28;20619;-78
2020/12/10 02:43:10;;;;;;;51.33;24.70;;;1.50;99.90;;;;;;5071789;28;20506;-80
2020/12/10 02:45:36;;;;;;;53.57;25.83;;;1.50;99.90;;;;;;5065988;28;20479;-79
2020/12/10 02:48:03;;;;;;;46.80;24.23;;;1.50;99.90;;;;;;5069888;28;20446;-79
2020/12/10 02:50:29;;;;;;;51.50;25.30;;;1.60;99.90;;;;;;5068680;28;20994;-79
2020/12/10 02:52:56;;;;;;;52.97;26.67;;;1.50;99.90;;;;;;5075890;28;20502;-79
2020/12/10 02:55:22;;;;;;;51.60;25.40;;;1.50;99.90;;;;;;5063590;28;20511;-79
2020/12/10 02:57:49;;;;;;;48.57;26.57;;;1.50;99.90;;;;;;5066171;28;20506;-78
2020/12/10 03:00:16;;;;;;;47.47;25.07;;;1.50;99.90;;;;;;5064700;28;20481;-79
2020/12/10 03:02:42;;;;;;;52.87;25.33;;;1.60;99.90;;;;;;5073005;28;20445;-78
2020/12/10 03:05:08;;;;;;;57.83;26.47;;;1.60;99.90;;;;;;5066318;28;20560;-79
2020/12/10 03:07:35;;;;;;;51.70;26.07;;;1.60;99.90;;;;;;5067722;28;20448;-79
2020/12/10 03:10:03;;;;;;;53.77;26.00;;;1.60;99.90;;;;;;5071283;28;20436;-79
2020/12/10 03:12:29;;;;;;;49.83;26.20;;;1.70;99.90;;;;;;5064280;28;20451;-79
2020/12/10 03:14:57;;;;;;;51.27;26.80;;;1.70;99.90;;;;;;5067052;28;20556;-78
2020/12/10 03:17:23;;;;;;;51.53;26.03;;;1.80;99.90;;;;;;5065700;28;20459;-80
2020/12/10 03:19:49;;;;;;;51.93;25.90;;;1.80;99.90;;;;;;5078454;28;20465;-79
2020/12/10 03:22:16;;;;;;;46.63;24.30;;;1.60;99.90;;;;;;5070344;28;20476;-78
2020/12/10 03:24:42;;;;;;;53.70;26.20;;;1.70;99.90;;;;;;5077621;28;20985;-79
2020/12/10 03:27:09;;;;;;;45.43;24.33;;;1.70;99.90;;;;;;5078137;28;20467;-79
2020/12/10 03:29:35;;;;;;;55.60;25.73;;;1.60;99.90;;;;;;5075527;28;20480;-77
2020/12/10 03:32:04;;;;;;;48.33;24.03;;;1.70;99.90;;;;;;5072851;28;20524;-78
2020/12/10 03:34:30;;;;;;;48.53;25.33;;;1.70;99.90;;;;;;5079390;28;20964;-79
2020/12/10 03:36:58;;;;;;;51.03;25.83;;;1.60;99.90;;;;;;5075768;28;20469;-78
2020/12/10 03:39:26;;;;;;;50.27;26.60;;;1.60;99.90;;;;;;5073372;28;20929;-78
2020/12/10 03:41:54;;;;;;;53.93;26.60;;;1.70;99.90;;;;;;5059614;28;20490;-79
2020/12/10 03:44:21;;;;;;;50.63;24.67;;;1.80;99.90;;;;;;5070649;28;20488;-80
2020/12/10 03:46:47;;;;;;;51.90;27.20;;;1.80;99.90;;;;;;5069507;28;20544;-79
2020/12/10 03:49:14;;;;;;;53.40;25.60;;;1.80;99.90;;;;;;5073362;28;20447;-79
2020/12/10 03:51:41;;;;;;;51.40;26.23;;;1.80;99.70;;;;;;5065437;28;20497;-81
2020/12/10 03:54:08;;;;;;;47.13;24.53;;;1.80;99.90;;;;;;5072424;28;20514;-80
2020/12/10 03:56:34;;;;;;;48.60;25.53;;;1.70;96.50;;;;;;5075749;28;20524;-79
2020/12/10 03:59:01;;;;;;;51.77;25.40;;;1.70;99.90;;;;;;5073371;28;20454;-79
2020/12/10 04:01:28;;;;;;;43.90;24.30;;;1.70;99.90;;;;;;5070524;28;20481;-79
2020/12/10 04:03:55;;;;;;;48.67;26.27;;;1.80;99.90;;;;;;5061820;28;20886;-80
2020/12/10 04:06:22;;;;;;;54.60;25.83;;;1.80;99.90;;;;;;5068791;28;20502;-79
2020/12/10 04:08:48;;;;;;;54.20;26.10;;;1.80;99.90;;;;;;5069978;28;20566;-79
2020/12/10 04:11:15;;;;;;;54.00;25.63;;;1.90;99.90;;;;;;5083230;28;20456;-80
2020/12/10 04:13:42;;;;;;;52.83;25.60;;;1.80;99.90;;;;;;5081949;28;20505;-80
2020/12/10 04:16:08;;;;;;;46.87;26.13;;;1.80;99.20;;;;;;5075280;28;20645;-80
2020/12/10 04:18:38;;;;;;;47.57;24.80;;;1.90;99.80;;;;;;5074077;28;20529;-79
2020/12/10 04:21:04;;;;;;;54.70;25.37;;;1.90;98.20;;;;;;5067154;28;20473;-80
2020/12/10 04:23:31;;;;;;;49.47;24.70;;;1.80;97.50;;;;;;5067192;28;20488;-79
2020/12/10 04:25:58;;;;;;;53.70;24.63;;;1.80;98.70;;;;;;5067037;28;20497;-79
2020/12/10 04:28:24;;;;;;;56.77;24.60;;;1.90;98.70;;;;;;5066859;28;20531;-79
2020/12/10 04:30:51;;;;;;;62.67;25.40;;;1.70;99.40;;;;;;5059956;28;20462;-78
2020/12/10 04:33:17;;;;;;;60.93;25.30;;;1.60;99.90;;;;;;5065286;28;20548;-79
2020/12/10 04:35:44;;;;;;;53.00;24.70;;;1.70;99.90;;;;;;5068245;28;20481;-79
2020/12/10 04:38:11;;;;;;;59.10;26.40;;;1.80;99.90;;;;;;5068267;28;20439;-78
2020/12/10 04:40:38;;;;;;;64.40;26.17;;;1.80;99.90;;;;;;5068373;28;20453;-79
2020/12/10 04:43:07;;;;;;;64.50;26.60;;;1.80;99.90;;;;;;5071727;28;20451;-78
2020/12/10 04:45:34;;;;;;;62.53;26.10;;;1.70;99.90;;;;;;5061798;28;20473;-79
2020/12/10 04:48:01;;;;;;;62.50;26.67;;;1.70;99.90;;;;;;5065852;28;20524;-80
2020/12/10 04:50:30;;;;;;;60.10;25.20;;;1.70;99.90;;;;;;5066336;28;20501;-79
2020/12/10 04:52:58;;;;;;;70.10;27.63;;;1.70;99.90;;;;;;5063979;28;20955;-79
2020/12/10 04:55:26;;;;;;;71.57;27.37;;;1.60;99.90;;;;;;5057433;28;20487;-79
2020/12/10 04:57:54;;;;;;;64.67;25.50;;;1.70;99.90;;;;;;5060191;28;20827;-79
2020/12/10 05:00:21;;;;;;;61.17;25.57;;;1.60;99.90;;;;;;5056649;28;20496;-79
2020/12/10 05:02:48;;;;;;;67.80;25.60;;;1.60;99.90;;;;;;5063011;28;20960;-79
2020/12/10 05:05:21;;;;;;;70.73;25.33;;;1.70;99.90;;;;;;5057152;28;21055;-79
2020/12/10 05:07:47;;;;;;;64.50;26.03;;;1.70;99.90;;;;;;5061084;28;20492;-79
2020/12/10 05:10:16;;;;;;;70.60;27.47;;;1.60;99.90;;;;;;5064405;28;20494;-80
2020/12/10 05:12:43;;;;;;;73.90;29.83;;;1.60;99.90;;;;;;5071697;28;21206;-79
2020/12/10 05:15:11;;;;;;;71.77;25.20;;;1.60;99.90;;;;;;5066455;28;20485;-79
2020/12/10 05:17:37;;;;;;;70.97;28.47;;;1.60;99.90;;;;;;5059921;28;20895;-80
2020/12/10 05:20:06;;;;;;;74.00;29.10;;;1.70;99.90;;;;;;5061958;28;20516;-80
2020/12/10 05:22:33;;;;;;;75.13;27.63;;;1.70;99.90;;;;;;5064216;28;20450;-79
2020/12/10 05:25:00;;;;;;;72.03;28.40;;;1.70;99.90;;;;;;5060746;28;20494;-80
2020/12/10 05:27:27;;;;;;;74.63;29.10;;;1.70;99.90;;;;;;5063086;28;20453;-79
2020/12/10 05:29:54;;;;;;;80.47;29.87;;;1.70;99.90;;;;;;5061829;28;20485;-79
2020/12/10 05:32:38;;;;;;;77.37;28.60;;;1.70;99.90;;;;;;5066357;28;20864;-80
2020/12/10 05:35:22;;;;;;;77.77;29.10;;;1.70;99.90;;;;;;5059771;28;20458;-79
2020/12/10 05:37:50;;;;;;;78.87;26.77;;;1.60;99.90;;;;;;5064474;28;20456;-79
2020/12/10 05:40:17;;;;;;;78.37;29.03;;;1.60;99.90;;;;;;5061294;28;20458;-79
2020/12/10 05:42:45;;;;;;;79.33;29.13;;;1.60;99.90;;;;;;5060807;28;20485;-79
2020/12/10 05:45:14;;;;;;;85.87;29.80;;;1.50;99.90;;;;;;5061267;28;20506;-79
2020/12/10 05:47:45;;;;;;;80.93;30.33;;;1.60;99.90;;;;;;5068462;28;20443;-79
2020/12/10 05:50:14;;;;;;;89.73;31.80;;;1.60;99.90;;;;;;5071916;28;20441;-79
2020/12/10 05:53:03;;;;;;;99.97;29.73;;;1.60;99.90;;;;;;5076535;28;20479;-79
2020/12/10 05:55:30;;;;;;;101.27;30.90;;;1.50;99.90;;;;;;5078127;28;20449;-80
2020/12/10 05:57:57;;;;;;;98.30;32.00;;;1.50;99.90;;;;;;5076060;28;20844;-80
2020/12/10 06:00:24;;;;;;;105.30;32.63;;;1.50;99.90;;;;;;5074735;28;20499;-80
2020/12/10 06:02:52;;;;;;;125.57;34.43;;;1.50;99.90;;;;;;5071946;28;20513;-80
2020/12/10 06:05:19;;;;;;;122.27;34.50;;;1.40;99.90;;;;;;5071801;28;20567;-80
2020/12/10 06:08:01;;;;;;;138.87;36.80;;;1.40;99.90;;;;;;5065601;28;20449;-79
2020/12/10 06:10:28;;;;;;;95.70;32.40;;;1.40;99.90;;;;;;5062419;28;20457;-80
2020/12/10 06:12:54;;;;;;;111.57;32.73;;;1.50;99.90;;;;;;5063425;28;20462;-80
2020/12/10 06:15:25;;;;;;;133.37;34.87;;;1.50;99.90;;;;;;5072227;28;20474;-77
2020/12/10 06:18:03;;;;;;;155.37;34.60;;;1.50;99.90;;;;;;5070676;28;20454;-81
2020/12/10 06:20:38;;;;;;;139.20;33.23;;;1.50;99.90;;;;;;5068461;28;20452;-79
2020/12/10 06:23:39;;;;;;;121.77;33.03;;;1.50;99.90;;;;;;5062770;28;20548;-78
2020/12/10 06:26:35;;;;;;;147.00;34.30;;;1.30;99.90;;;;;;5064974;28;20481;-79
2020/12/10 06:29:18;;;;;;;105.30;34.13;;;1.40;99.90;;;;;;5063602;28;20457;-79
2020/12/10 06:32:18;;;;;;;131.03;34.63;;;1.50;99.90;;;;;;5057995;28;20469;-80
2020/12/10 06:34:48;;;;;;;166.67;34.20;;;1.50;99.90;;;;;;5061913;28;20858;-80
2020/12/10 06:37:23;;;;;;;126.53;32.03;;;1.40;99.90;;;;;;5058091;28;20511;-78
2020/12/10 06:39:51;;;;;;;162.30;34.70;;;1.50;99.90;;;;;;5061944;28;20452;-80
2020/12/10 06:42:20;;;;;;;197.20;40.97;;;1.40;99.90;;;;;;5066921;28;20487;-79
2020/12/10 06:44:47;;;;;;;116.20;31.00;;;1.40;99.90;;;;;;5066138;28;20470;-79
2020/12/10 06:47:14;;;;;;;133.70;34.00;;;1.50;99.90;;;;;;5066174;28;20506;-79
2020/12/10 06:49:40;;;;;;;148.23;32.37;;;1.40;99.90;;;;;;5065032;28;20980;-79
2020/12/10 06:52:12;;;;;;;132.00;36.33;;;1.50;99.90;;;;;;5063848;28;20553;-80
2020/12/10 06:55:04;;;;;;;126.73;33.27;;;1.50;99.90;;;;;;5065244;28;20488;-79
2020/12/10 06:58:00;;;;;;;113.17;32.77;;;1.50;99.90;;;;;;5070813;28;20449;-79
2020/12/10 07:00:38;;;;;;;107.90;32.10;;;1.60;99.90;;;;;;5062368;28;20452;-80
2020/12/10 07:03:10;;;;;;;111.33;32.73;;;1.60;99.90;;;;;;5083214;28;20493;-83
2020/12/10 07:05:37;;;;;;;102.40;32.30;;;1.60;99.90;;;;;;5080499;28;20540;-83
2020/12/10 07:08:09;;;;;;;105.67;29.70;;;1.70;99.90;;;;;;5085292;28;20471;-82
2020/12/10 07:10:40;;;;;;;95.97;30.97;;;1.70;99.90;;;;;;5075018;28;20452;-81
2020/12/10 07:13:07;;;;;;;116.47;31.30;;;1.70;99.90;;;;;;5074511;28;21038;-80
2020/12/10 07:15:33;;;;;;;121.53;30.90;;;1.70;99.90;;;;;;5065668;28;20482;-81
2020/12/10 07:18:02;;;;;;;131.57;34.03;;;1.70;99.90;;;;;;5074448;28;20891;-81
2020/12/10 07:20:29;;;;;;;120.03;32.60;;;1.60;99.90;;;;;;5074711;28;20454;-80
2020/12/10 07:22:56;;;;;;;192.27;34.37;;;1.60;99.90;;;;;;5077964;28;20462;-81
2020/12/10 07:25:23;;;;;;;176.10;34.67;;;1.50;99.90;;;;;;5078988;28;20530;-81
2020/12/10 07:27:50;;;;;;;97.10;29.07;;;1.60;99.90;;;;;;5090508;28;20447;-80
2020/12/10 07:30:18;;;;;;;102.10;31.00;;;1.60;99.90;;;;;;5080722;28;20505;-81
2020/12/10 07:32:45;;;;;;;180.20;38.17;;;1.70;99.90;;;;;;5069939;28;20440;-80
2020/12/10 07:35:13;;;;;;;121.00;31.93;;;1.70;99.90;;;;;;5068143;28;20457;-79
2020/12/10 07:37:40;;;;;;;218.03;39.03;;;1.70;99.90;;;;;;5070476;28;21233;-81
2020/12/10 07:40:11;;;;;;;120.60;30.03;;;1.70;99.90;;;;;;5063322;28;20437;-81
2020/12/10 07:42:39;;;;;;;184.30;36.13;;;1.80;99.90;;;;;;5063179;28;20457;-81
2020/12/10 07:45:11;;;;;;;125.30;33.77;;;1.80;99.90;;;;;;5069601;28;20955;-81
2020/12/10 07:47:38;;;;;;;156.27;34.30;;;1.70;99.90;;;;;;5069841;28;20476;-81
2020/12/10 07:50:20;;;;;;;105.23;31.50;;;1.60;99.90;;;;;;5070547;28;20452;-82
2020/12/10 07:52:49;;;;;;;197.77;36.90;;;1.60;99.90;;;;;;5071310;28;20437;-81
2020/12/10 07:55:22;;;;;;;147.93;34.27;;;1.60;99.90;;;;;;5073751;28;20453;-82
2020/12/10 07:58:12;;;;;;;366.40;43.47;;;1.60;99.90;;;;;;5076711;28;20445;-82
2020/12/10 08:00:40;;;;;;;123.33;33.30;;;1.60;99.90;;;;;;5078272;28;20440;-81
2020/12/10 08:03:27;;;;;;;142.80;35.80;;;1.70;99.90;;;;;;5069725;28;20858;-83
2020/12/10 08:06:00;;;;;;;119.03;33.40;;;1.70;99.90;;;;;;5070593;28;20470;-81
2020/12/10 08:08:36;;;;;;;120.00;34.40;;;1.90;99.90;;;;;;5069780;28;21045;-81
2020/12/10 08:11:07;;;;;;;111.83;34.20;;;1.90;99.90;;;;;;5073906;28;20515;-79
2020/12/10 08:13:35;;;;;;;104.27;32.30;;;2.00;99.90;;;;;;5065459;28;20988;-80
2020/12/10 08:16:09;;;;;;;202.87;35.40;;;1.90;99.90;;;;;;5062486;28;20519;-80
2020/12/10 08:18:36;;;;;;;210.33;36.93;;;2.00;99.90;;;;;;5065092;28;21053;-79
2020/12/10 08:21:06;;;;;;;119.67;34.60;;;1.90;99.90;;;;;;5066034;28;20438;-79
2020/12/10 08:23:44;;;;;;;223.30;37.40;;;1.90;99.90;;;;;;5066070;28;20785;-80
2020/12/10 08:26:13;;;;;;;85.80;27.10;;;1.90;99.90;;;;;;5074689;28;20466;-80
2020/12/10 08:28:52;;;;;;;101.57;31.10;;;2.00;99.90;;;;;;5069553;28;20459;-79
2020/12/10 08:31:23;;;;;;;90.13;29.67;;;2.00;99.90;;;;;;5072596;28;20457;-80
2020/12/10 08:33:51;;;;;;;109.60;33.00;;;2.00;99.90;;;;;;5070484;28;20461;-81
2020/12/10 08:36:29;;;;;;;91.40;30.03;;;2.00;99.90;;;;;;5066940;28;20821;-81
2020/12/10 08:38:57;;;;;;;126.37;30.93;;;2.00;99.90;;;;;;5067083;28;20480;-81
2020/12/10 08:41:28;;;;;;;92.23;29.87;;;2.20;99.90;;;;;;5074681;28;20795;-81
2020/12/10 08:44:01;;;;;;;135.63;30.70;;;2.20;99.90;;;;;;5071798;28;20465;-81
2020/12/10 08:46:28;;;;;;;112.00;33.07;;;2.10;99.90;;;;;;5063340;28;20566;-82
2020/12/10 08:48:56;;;;;;;158.43;34.57;;;2.20;99.90;;;;;;5071310;28;20449;-82
2020/12/10 08:51:36;;;;;;;149.73;34.70;;;2.20;99.90;;;;;;5073554;28;20455;-81
2020/12/10 08:54:04;;;;;;;145.20;31.87;;;2.00;99.90;;;;;;5068623;28;20461;-81
2020/12/10 08:56:36;;;;;;;154.73;30.80;;;2.10;99.90;;;;;;5069822;28;20433;-81
2020/12/10 08:59:04;;;;;;;84.87;27.17;;;1.80;99.90;;;;;;5061860;28;20466;-80
2020/12/10 09:01:31;;;;;;;78.80;28.20;;;1.90;99.90;;;;;;5070553;28;20557;-82
2020/12/10 09:03:58;;;;;;;96.80;29.27;;;2.00;99.90;;;;;;5072998;28;20572;-80
2020/12/10 09:06:32;;;;;;;147.57;32.40;;;2.00;99.90;;;;;;5071616;28;20481;-81
2020/12/10 09:09:02;;;;;;;108.63;30.17;;;1.90;99.90;;;;;;5072598;28;20433;-83
2020/12/10 09:11:29;;;;;;;114.40;30.33;;;2.00;99.90;;;;;;5067691;28;21181;-81
2020/12/10 09:13:58;;;;;;;98.87;32.03;;;2.10;99.90;;;;;;5068479;28;20573;-80
2020/12/10 09:16:26;;;;;;;91.27;25.63;;;2.30;99.90;;;;;;5069324;28;20459;-81
2020/12/10 09:18:53;;;;;;;96.10;30.27;;;2.20;99.90;;;;;;5075640;28;20469;-81
2020/12/10 09:21:20;;;;;;;105.53;29.37;;;2.00;99.90;;;;;;5058649;28;20460;-81
2020/12/10 09:23:47;;;;;;;122.43;31.10;;;2.10;99.90;;;;;;5070449;28;20539;-83
2020/12/10 09:26:16;;;;;;;239.03;34.10;;;2.00;99.90;;;;;;5066998;28;20462;-82
2020/12/10 09:28:43;;;;;;;105.67;31.70;;;2.00;99.90;;;;;;5060475;28;20440;-81
2020/12/10 09:31:10;;;;;;;167.77;32.73;;;2.10;99.90;;;;;;5063452;28;20467;-82
2020/12/10 09:33:38;;;;;;;99.77;28.80;;;2.10;99.90;;;;;;5065165;28;20451;-81
2020/12/10 09:36:05;;;;;;;200.00;32.40;;;2.10;99.90;;;;;;5058774;28;20452;-81
2020/12/10 09:38:35;;;;;;;116.70;27.80;;;2.20;99.90;;;;;;5071044;28;20538;-81
2020/12/10 09:41:02;;;;;;;104.40;27.60;;;2.20;99.90;;;;;;5076731;28;20457;-82
2020/12/10 09:43:30;;;;;;;73.00;26.23;;;2.10;99.00;;;;;;5076155;28;20440;-82
2020/12/10 09:46:01;;;;;;;66.47;24.50;;;2.20;99.90;;;;;;5080629;28;20476;-82
2020/12/10 09:48:28;;;;;;;74.90;26.27;;;2.30;99.90;;;;;;5064809;28;21294;-82
2020/12/10 09:50:57;;;;;;;93.93;26.87;;;2.20;99.50;;;;;;5059942;28;20475;-80
2020/12/10 09:53:29;;;;;;;105.00;29.47;;;2.30;98.80;;;;;;5069833;28;20459;-80
2020/12/10 09:58:38;;;;;;;77.80;26.80;;;2.10;99.50;;;;;;5073244;28;20511;-80
2020/12/10 10:01:09;;;;;;;92.60;29.50;;;2.30;97.70;;;;;;5071077;28;20451;-81
2020/12/10 10:03:36;;;;;;;64.67;24.93;;;2.30;96.10;;;;;;5069191;28;20459;-80
2020/12/10 10:06:05;;;;;;;64.70;23.87;;;2.30;94.90;;;;;;5078161;28;20465;-82
2020/12/10 10:08:33;;;;;;;81.30;27.40;;;2.40;97.60;;;;;;5062810;28;20543;-81
2020/12/10 10:11:00;;;;;;;83.43;25.93;;;2.50;94.90;;;;;;5068223;28;20444;-81
2020/12/10 10:13:27;;;;;;;64.50;25.30;;;2.40;95.60;;;;;;5068285;28;20525;-82
2020/12/10 10:15:55;;;;;;;82.13;26.20;;;2.40;97.30;;;;;;5089407;28;20430;-81
2020/12/10 10:18:22;;;;;;;75.47;27.50;;;2.40;95.30;;;;;;5080877;28;20464;-82
2020/12/10 10:20:50;;;;;;;114.23;27.83;;;2.40;97.90;;;;;;5074624;28;20441;-82
2020/12/10 10:23:19;;;;;;;101.57;28.20;;;2.20;98.10;;;;;;5070554;28;20853;-80
2020/12/10 10:25:46;;;;;;;120.40;30.23;;;2.30;99.90;;;;;;5068299;28;20464;-81
2020/12/10 10:28:13;;;;;;;89.53;28.03;;;2.40;99.90;;;;;;5057538;28;20467;-81
2020/12/10 10:30:40;;;;;;;112.77;27.17;;;2.30;99.90;;;;;;5056140;28;20471;-82
2020/12/10 10:33:07;;;;;;;76.03;25.53;;;2.20;99.40;;;;;;5054989;28;20439;-82
2020/12/10 10:35:37;;;;;;;69.63;24.80;;;2.30;99.90;;;;;;5064258;28;20970;-82
2020/12/10 10:38:04;;;;;;;64.93;24.47;;;2.60;99.90;;;;;;5065512;28;20477;-82
2020/12/10 10:40:33;;;;;;;74.47;28.20;;;2.70;95.70;;;;;;5070900;28;20460;-81
2020/12/10 10:43:01;;;;;;;77.17;25.17;;;2.40;98.40;;;;;;5067929;28;20485;-82
2020/12/10 10:45:29;;;;;;;65.37;23.90;;;2.60;96.10;;;;;;5064360;28;20469;-80
2020/12/10 10:47:56;;;;;;;63.53;26.30;;;2.80;93.30;;;;;;5060733;28;20476;-80
2020/12/10 10:50:23;;;;;;;68.17;24.93;;;2.90;91.00;;;;;;5059941;28;20445;-81
2020/12/10 10:52:50;;;;;;;56.73;22.73;;;2.60;91.20;;;;;;5070650;28;20450;-81
2020/12/10 10:55:17;;;;;;;60.03;26.23;;;2.60;90.60;;;;;;5070849;28;20467;-81
2020/12/10 10:57:45;;;;;;;56.10;23.03;;;2.90;92.30;;;;;;5069144;28;20463;-83
2020/12/10 11:00:13;;;;;;;41.23;18.90;;;3.10;88.50;;;;;;5073104;28;20443;-83
2020/12/10 11:02:40;;;;;;;49.03;22.47;;;3.00;86.70;;;;;;5079214;28;20479;-82
2020/12/10 11:05:10;;;;;;;49.17;21.43;;;2.90;86.80;;;;;;5073716;28;20554;-82
2020/12/10 11:07:37;;;;;;;50.87;21.90;;;3.10;87.00;;;;;;5077828;28;20475;-82
2020/12/10 11:10:05;;;;;;;45.10;21.97;;;3.20;84.90;;;;;;5068822;28;20460;-83
2020/12/10 11:12:33;;;;;;;41.77;19.70;;;3.20;85.10;;;;;;5071558;28;20504;-78
2020/12/10 11:15:00;;;;;;;46.20;21.73;;;3.00;84.40;;;;;;5055403;28;20802;-78
2020/12/10 11:17:27;;;;;;;45.17;20.37;;;3.00;86.00;;;;;;5064290;28;20500;-78
2020/12/10 11:19:54;;;;;;;39.57;20.20;;;3.20;84.40;;;;;;5066073;28;20462;-77
2020/12/10 11:22:21;;;;;;;41.40;20.30;;;3.00;85.70;;;;;;5066734;28;20460;-77
2020/12/10 11:24:48;;;;;;;46.53;21.87;;;3.00;84.90;;;;;;5062662;28;20456;-77
2020/12/10 11:27:15;;;;;;;38.80;18.50;;;3.20;85.90;;;;;;5060991;28;20485;-77
2020/12/10 11:29:42;;;;;;;35.33;17.47;;;3.30;84.00;;;;;;5062540;28;21290;-78
2020/12/10 11:32:10;;;;;;;39.93;18.30;;;3.10;85.10;;;;;;5067998;28;20459;-78
2020/12/10 11:34:37;;;;;;;43.20;21.13;;;3.00;85.20;;;;;;5067578;28;20822;-76
2020/12/10 11:37:03;;;;;;;43.17;21.60;;;3.00;87.90;;;;;;5064925;28;20455;-77
2020/12/10 11:39:30;;;;;;;39.03;18.70;;;3.10;84.80;;;;;;5061910;28;20529;-77
2020/12/10 11:41:57;;;;;;;40.87;21.47;;;2.80;86.00;;;;;;5062097;28;20822;-78
2020/12/10 11:44:23;;;;;;;56.03;21.57;;;2.80;89.30;;;;;;5069201;28;22519;-77
2020/12/10 11:46:50;;;;;;;43.50;21.53;;;2.80;90.00;;;;;;5057008;28;20490;-78
2020/12/10 11:49:18;;;;;;;54.90;24.23;;;2.90;88.00;;;;;;5071903;28;20831;-78
2020/12/10 11:51:45;;;;;;;50.03;20.30;;;2.90;87.60;;;;;;5056364;28;20497;-77
2020/12/10 11:54:12;;;;;;;41.83;20.00;;;2.90;89.50;;;;;;5062747;28;20496;-78
2020/12/10 11:56:38;;;;;;;44.73;20.53;;;3.10;87.60;;;;;;5064797;28;20473;-76
2020/12/10 11:59:05;;;;;;;44.00;21.13;;;3.10;85.30;;;;;;5059743;28;20450;-77
2020/12/10 12:01:32;;;;;;;39.47;18.83;;;2.80;87.20;;;;;;5061467;28;20462;-79
2020/12/10 12:03:59;;;;;;;46.80;21.47;;;2.80;85.20;;;;;;5068295;28;20551;-78
2020/12/10 12:06:27;;;;;;;46.13;20.60;;;3.10;89.80;;;;;;5065932;28;20558;-77
2020/12/10 12:08:54;;;;;;;49.20;20.93;;;3.20;91.00;;;;;;5057345;28;20531;-78
2020/12/10 12:11:24;;;;;;;48.50;21.40;;;3.10;86.50;;;;;;5066864;28;20462;-76
2020/12/10 12:14:02;;;;;;;56.57;24.03;;;2.90;89.80;;;;;;5063776;28;20467;-77
2020/12/10 12:16:29;;;;;;;44.97;22.20;;;3.00;89.80;;;;;;5062965;28;20452;-76
2020/12/10 12:18:56;;;;;;;44.70;21.77;;;2.80;89.60;;;;;;5060244;28;20469;-77
2020/12/10 12:21:24;;;;;;;46.87;21.60;;;2.80;89.20;;;;;;5061534;28;20470;-77
2020/12/10 12:23:52;;;;;;;59.30;23.23;;;2.80;87.10;;;;;;5057433;28;20804;-78
2020/12/10 12:26:19;;;;;;;59.57;25.00;;;2.80;90.30;;;;;;5069065;28;20456;-79
2020/12/10 12:28:49;;;;;;;50.60;22.90;;;2.50;90.70;;;;;;5064212;28;20570;-80
2020/12/10 12:31:17;;;;;;;54.00;23.43;;;2.70;90.40;;;;;;5061942;28;20506;-80
2020/12/10 12:33:43;;;;;;;59.93;24.93;;;2.70;90.40;;;;;;5068625;28;20502;-78
2020/12/10 12:36:11;;;;;;;70.63;27.73;;;2.50;90.40;;;;;;5075895;28;20449;-79
2020/12/10 12:38:37;;;;;;;57.97;22.93;;;2.40;92.20;;;;;;5064496;28;20629;-78
2020/12/10 12:41:05;;;;;;;63.67;25.27;;;2.30;92.40;;;;;;5070478;28;20455;-78
2020/12/10 12:43:32;;;;;;;62.30;24.17;;;2.30;92.60;;;;;;5055786;28;20456;-77